Time;durP1;ratioP1;P1;durP2;ratioP2;P2;SDS_P1;SDS_P2;PMS_P1;PMS_P2;Temp;Humidity;BMP_temperature;BMP_pressure;BME280_temperature;BME280_humidity;BME280_pressure;Samples;Min_cycle;Max_cycle;Signal;HPM_P1;HPM_P2
2023/10/21 00:00:25;;;;;;;15.43;7.38;;;7.20;99.90;;;;;;5099071;28;20308;-78
2023/10/21 00:02:51;;;;;;;18.63;7.47;;;7.20;99.90;;;;;;5100892;28;20023;-80
2023/10/21 00:05:17;;;;;;;18.30;7.80;;;7.30;99.90;;;;;;5101596;28;20046;-75
2023/10/21 00:07:43;;;;;;;19.55;8.05;;;7.30;99.90;;;;;;5099936;28;20035;-75
2023/10/21 00:10:09;;;;;;;17.45;8.52;;;7.30;99.90;;;;;;5101495;28;20023;-77
2023/10/21 00:12:36;;;;;;;19.27;8.55;;;7.30;99.90;;;;;;5101054;28;20131;-78
2023/10/21 00:15:06;;;;;;;16.10;8.68;;;7.30;99.90;;;;;;5099941;28;20058;-75
2023/10/21 00:17:32;;;;;;;22.33;9.43;;;7.30;99.90;;;;;;5099676;28;20055;-76
2023/10/21 00:19:59;;;;;;;23.88;9.80;;;7.30;99.90;;;;;;5101183;28;20029;-76
2023/10/21 00:22:25;;;;;;;20.48;9.25;;;7.30;99.90;;;;;;5099463;28;20107;-77
2023/10/21 00:24:50;;;;;;;21.55;9.07;;;7.40;99.90;;;;;;5099828;28;20162;-76
2023/10/21 00:27:17;;;;;;;26.67;9.60;;;7.30;99.90;;;;;;5097548;28;20032;-75
2023/10/21 00:29:43;;;;;;;22.35;9.50;;;7.40;99.90;;;;;;5099979;28;20052;-78
2023/10/21 00:32:08;;;;;;;23.75;10.35;;;7.40;99.90;;;;;;5098686;28;20046;-78
2023/10/21 00:34:38;;;;;;;25.45;10.88;;;7.40;99.90;;;;;;5098461;28;20371;-77
2023/10/21 00:37:08;;;;;;;25.27;10.02;;;7.40;99.90;;;;;;5107316;28;20042;-78
2023/10/21 00:39:34;;;;;;;26.88;10.73;;;7.50;99.90;;;;;;5099682;28;20058;-78
2023/10/21 00:42:01;;;;;;;28.60;10.50;;;7.40;99.90;;;;;;5100576;28;20031;-75
2023/10/21 00:44:26;;;;;;;28.55;11.50;;;7.50;99.90;;;;;;5099093;28;20504;-76
2023/10/21 00:46:53;;;;;;;23.80;11.02;;;7.50;99.90;;;;;;5099001;28;20039;-75
2023/10/21 00:49:19;;;;;;;28.75;11.25;;;7.60;99.90;;;;;;5097738;28;20031;-77
2023/10/21 00:51:47;;;;;;;27.27;11.27;;;7.50;99.90;;;;;;5098967;28;20028;-80
2023/10/21 00:54:14;;;;;;;32.92;12.27;;;7.50;99.90;;;;;;5099671;28;20107;-76
2023/10/21 00:56:40;;;;;;;27.85;11.57;;;7.50;99.90;;;;;;5098512;28;20016;-78
2023/10/21 00:59:07;;;;;;;38.30;12.18;;;7.50;99.90;;;;;;5098258;28;20040;-75
2023/10/21 01:01:36;;;;;;;35.75;12.20;;;7.60;99.90;;;;;;5096899;28;20035;-77
2023/10/21 01:04:03;;;;;;;56.20;14.23;;;7.50;99.90;;;;;;5102468;28;20040;-77
2023/10/21 01:06:29;;;;;;;29.33;12.60;;;7.60;99.90;;;;;;5103263;28;20070;-77
2023/10/21 01:08:54;;;;;;;32.80;12.90;;;7.60;99.90;;;;;;5100996;28;20037;-75
2023/10/21 01:11:20;;;;;;;35.55;12.73;;;7.70;99.90;;;;;;5101520;28;20381;-80
2023/10/21 01:13:48;;;;;;;38.47;13.75;;;7.60;99.90;;;;;;5103398;28;20087;-77
2023/10/21 01:16:14;;;;;;;37.83;14.38;;;7.60;99.90;;;;;;5101952;28;20115;-77
2023/10/21 01:18:40;;;;;;;38.78;13.43;;;7.60;99.90;;;;;;5101498;28;20063;-76
2023/10/21 01:21:05;;;;;;;34.83;13.50;;;7.70;99.90;;;;;;5101391;28;20096;-77
2023/10/21 01:23:34;;;;;;;33.65;13.77;;;7.70;99.90;;;;;;5101402;28;20063;-79
2023/10/21 01:26:01;;;;;;;36.58;13.93;;;7.70;99.90;;;;;;5101075;28;20042;-78
2023/10/21 01:28:28;;;;;;;33.33;13.13;;;7.70;99.90;;;;;;5101493;28;20465;-77
2023/10/21 01:30:54;;;;;;;44.45;14.68;;;7.60;99.90;;;;;;5100816;28;20085;-77
2023/10/21 01:33:21;;;;;;;35.88;13.98;;;7.70;99.90;;;;;;5100287;28;20020;-77
2023/10/21 01:35:47;;;;;;;37.95;14.57;;;7.70;99.90;;;;;;5102183;28;20039;-79
2023/10/21 01:38:14;;;;;;;41.53;15.32;;;7.70;99.90;;;;;;5101141;28;20024;-76
2023/10/21 01:40:40;;;;;;;39.78;14.23;;;7.80;99.90;;;;;;5101036;28;20537;-77
2023/10/21 01:43:06;;;;;;;40.72;14.57;;;7.80;99.90;;;;;;5102466;28;20028;-76
2023/10/21 01:45:34;;;;;;;41.15;15.77;;;7.70;99.90;;;;;;5100128;28;20031;-78
2023/10/21 01:48:00;;;;;;;48.13;15.30;;;7.70;99.90;;;;;;5100738;28;20028;-78
2023/10/21 01:50:25;;;;;;;41.85;14.30;;;7.80;99.90;;;;;;5102248;28;20027;-77
2023/10/21 01:53:05;;;;;;;38.90;14.40;;;7.90;99.90;;;;;;5101317;28;20024;-80
2023/10/21 01:55:31;;;;;;;52.40;14.40;;;7.80;99.90;;;;;;5063096;28;1100408;-78
2023/10/21 01:57:56;;;;;;;57.33;16.27;;;7.90;99.90;;;;;;5101442;28;20045;-78
2023/10/21 02:00:23;;;;;;;43.42;15.52;;;7.80;99.90;;;;;;5103525;28;20024;-77
2023/10/21 02:02:53;;;;;;;53.42;15.50;;;7.90;99.90;;;;;;5103512;28;20126;-77
2023/10/21 02:05:20;;;;;;;57.35;16.05;;;7.90;99.90;;;;;;5101330;28;20055;-77
2023/10/21 02:07:50;;;;;;;54.38;16.88;;;7.80;99.90;;;;;;5101295;28;20096;-78
2023/10/21 02:10:18;;;;;;;42.40;15.15;;;7.90;99.90;;;;;;5103219;28;20743;-80
2023/10/21 02:12:44;;;;;;;51.63;17.15;;;7.90;99.90;;;;;;5101159;28;20748;-77
2023/10/21 02:15:16;;;;;;;63.00;16.90;;;7.90;99.90;;;;;;5102509;28;20024;-78
2023/10/21 02:17:42;;;;;;;46.50;17.02;;;7.90;99.90;;;;;;5103202;28;20027;-77
2023/10/21 02:20:14;;;;;;;38.65;15.27;;;8.00;99.90;;;;;;5102932;28;20034;-81
2023/10/21 02:22:40;;;;;;;46.60;16.08;;;7.90;99.90;;;;;;5100941;28;20069;-79
2023/10/21 02:25:09;;;;;;;54.22;16.65;;;7.90;99.90;;;;;;5103041;28;20023;-76
2023/10/21 02:27:47;;;;;;;47.95;16.52;;;7.90;99.90;;;;;;5102569;28;20028;-80
2023/10/21 02:30:18;;;;;;;60.08;18.08;;;7.90;99.90;;;;;;5102622;28;20016;-78
2023/10/21 02:32:50;;;;;;;60.17;18.00;;;8.00;99.90;;;;;;5101344;28;20443;-76
2023/10/21 02:35:16;;;;;;;62.70;18.35;;;8.00;99.90;;;;;;5100978;28;20440;-77
2023/10/21 02:37:49;;;;;;;58.33;18.10;;;8.00;99.90;;;;;;5102720;28;20030;-81
2023/10/21 02:40:18;;;;;;;71.50;18.77;;;8.00;99.90;;;;;;5101247;28;20028;-76
2023/10/21 02:42:44;;;;;;;59.83;17.63;;;8.00;99.90;;;;;;5100914;28;20070;-80
2023/10/21 02:45:10;;;;;;;62.03;17.45;;;8.00;99.90;;;;;;5101431;28;20024;-78
2023/10/21 02:47:36;;;;;;;52.28;17.80;;;8.00;99.90;;;;;;5100925;28;20556;-77
2023/10/21 02:50:03;;;;;;;76.93;19.10;;;8.00;99.90;;;;;;5100687;28;20024;-78
2023/10/21 02:52:39;;;;;;;66.03;18.67;;;8.00;99.90;;;;;;5102163;28;20031;-81
2023/10/21 02:55:06;;;;;;;115.72;19.70;;;8.00;99.90;;;;;;5101785;28;20054;-78
2023/10/21 02:57:32;;;;;;;68.97;18.77;;;8.10;99.90;;;;;;5101066;28;20032;-79
2023/10/21 02:59:58;;;;;;;76.25;19.20;;;8.10;99.90;;;;;;5102265;28;20109;-77
2023/10/21 03:02:23;;;;;;;109.45;20.05;;;8.00;99.90;;;;;;5102441;28;20020;-79
2023/10/21 03:04:49;;;;;;;64.10;19.00;;;8.10;99.90;;;;;;5101489;28;20054;-79
2023/10/21 03:07:15;;;;;;;109.25;20.75;;;8.10;99.90;;;;;;5100823;28;20030;-77
2023/10/21 03:09:41;;;;;;;132.15;20.10;;;8.10;99.90;;;;;;5100913;28;20040;-78
2023/10/21 03:12:07;;;;;;;137.60;21.20;;;8.10;99.90;;;;;;5100979;28;20024;-76
2023/10/21 03:14:46;;;;;;;83.63;19.17;;;8.10;99.90;;;;;;5102001;28;20128;-79
2023/10/21 03:17:19;;;;;;;243.60;24.10;;;8.00;99.90;;;;;;5100968;28;20070;-82
2023/10/21 03:19:45;;;;;;;110.25;20.25;;;8.10;99.90;;;;;;5101987;28;20069;-78
2023/10/21 03:22:11;;;;;;;156.35;20.15;;;8.10;99.90;;;;;;5100745;28;20115;-80
2023/10/21 03:24:36;;;;;;;129.95;20.13;;;8.10;99.90;;;;;;5099874;28;20059;-81
2023/10/21 03:27:02;;;;;;;130.20;20.65;;;8.10;99.90;;;;;;5100605;28;20016;-79
2023/10/21 03:29:28;;;;;;;194.10;21.30;;;8.10;99.90;;;;;;5101592;28;20481;-77
2023/10/21 03:31:59;;;;;;;233.65;23.70;;;8.10;99.90;;;;;;5100764;28;20054;-82
2023/10/21 03:34:25;;;;;;;242.90;22.45;;;8.20;99.90;;;;;;5098602;28;20024;-76
2023/10/21 03:36:51;;;;;;;146.48;21.25;;;8.30;99.90;;;;;;5100298;28;20501;-80
2023/10/21 03:39:17;;;;;;;104.97;20.10;;;8.20;99.90;;;;;;5100141;28;20016;-78
2023/10/21 03:41:43;;;;;;;102.50;20.45;;;8.20;99.90;;;;;;5100640;28;20043;-80
2023/10/21 03:44:08;;;;;;;162.52;21.60;;;8.20;99.90;;;;;;5101582;28;20082;-78
2023/10/21 03:46:34;;;;;;;110.38;19.77;;;8.10;99.90;;;;;;5098922;28;20384;-78
2023/10/21 03:49:00;;;;;;;147.20;21.58;;;8.20;99.90;;;;;;5100962;28;20418;-79
2023/10/21 03:51:30;;;;;;;118.25;21.15;;;8.20;99.90;;;;;;5099595;28;20024;-80
2023/10/21 03:53:56;;;;;;;157.57;22.98;;;8.20;99.90;;;;;;5100970;28;20024;-78
2023/10/21 03:56:21;;;;;;;129.43;22.55;;;8.20;99.90;;;;;;5099291;28;20063;-79
2023/10/21 03:58:47;;;;;;;89.32;19.17;;;8.20;99.90;;;;;;5099149;28;20100;-77
2023/10/21 04:01:13;;;;;;;114.57;21.15;;;8.20;99.90;;;;;;5100272;28;20024;-81
2023/10/21 04:03:42;;;;;;;94.88;20.52;;;8.20;99.90;;;;;;5100481;28;20201;-79
2023/10/21 04:06:13;;;;;;;134.45;22.60;;;8.20;99.90;;;;;;5099669;28;20480;-79
2023/10/21 04:08:39;;;;;;;124.43;22.02;;;8.30;99.90;;;;;;5099564;28;20028;-79
2023/10/21 04:11:04;;;;;;;83.10;20.27;;;8.30;99.90;;;;;;5098572;28;20043;-77
2023/10/21 04:13:30;;;;;;;84.88;20.20;;;8.30;99.90;;;;;;5100664;28;20024;-77
2023/10/21 04:15:55;;;;;;;147.55;22.50;;;8.20;99.90;;;;;;5099540;28;20020;-78
2023/10/21 04:18:21;;;;;;;66.30;19.77;;;8.30;99.90;;;;;;5099533;28;20081;-78
2023/10/21 04:20:48;;;;;;;232.70;25.95;;;8.30;99.90;;;;;;5098906;28;20119;-77
2023/10/21 04:23:14;;;;;;;133.70;22.50;;;8.40;99.90;;;;;;5099208;28;20040;-78
2023/10/21 04:25:43;;;;;;;105.10;20.92;;;8.30;99.90;;;;;;5098008;28;20035;-80
2023/10/21 04:28:19;;;;;;;183.43;24.35;;;8.30;99.90;;;;;;5099217;28;20063;-76
2023/10/21 04:30:45;;;;;;;122.13;21.65;;;8.30;99.90;;;;;;5098896;28;20031;-74
2023/10/21 04:33:12;;;;;;;70.15;20.83;;;8.30;99.90;;;;;;5100098;28;20028;-74
2023/10/21 04:35:37;;;;;;;108.13;21.73;;;8.40;99.90;;;;;;5101171;28;20095;-74
2023/10/21 04:38:03;;;;;;;101.55;20.65;;;8.40;99.90;;;;;;5099911;28;20398;-73
2023/10/21 04:40:31;;;;;;;88.75;20.85;;;8.40;99.90;;;;;;5099326;28;20016;-74
2023/10/21 04:42:57;;;;;;;84.05;19.67;;;8.30;99.90;;;;;;5100757;28;20087;-75
2023/10/21 04:45:23;;;;;;;224.88;23.80;;;8.40;99.90;;;;;;5101214;28;20058;-74
2023/10/21 04:47:50;;;;;;;60.47;19.08;;;8.40;99.90;;;;;;5099726;28;20032;-74
2023/10/21 04:50:16;;;;;;;86.43;20.08;;;8.40;99.90;;;;;;5100904;28;20042;-75
2023/10/21 04:52:43;;;;;;;90.57;20.33;;;8.40;99.90;;;;;;5100883;28;20734;-74
2023/10/21 04:55:09;;;;;;;250.82;25.92;;;8.30;99.90;;;;;;5095218;28;20039;-75
2023/10/21 04:57:34;;;;;;;79.53;19.05;;;8.30;99.90;;;;;;5098357;28;20104;-74
2023/10/21 05:00:00;;;;;;;149.88;22.85;;;8.40;99.90;;;;;;5100100;28;20017;-74
2023/10/21 05:02:26;;;;;;;122.82;21.48;;;8.30;99.90;;;;;;5098323;28;20050;-75
2023/10/21 05:04:52;;;;;;;104.95;19.48;;;8.40;99.90;;;;;;5100418;28;20038;-75
2023/10/21 05:07:18;;;;;;;71.32;19.98;;;8.40;99.90;;;;;;5101091;28;20035;-75
2023/10/21 05:09:43;;;;;;;183.63;23.75;;;8.30;99.90;;;;;;5099641;28;20012;-74
2023/10/21 05:12:10;;;;;;;75.05;19.13;;;8.40;99.90;;;;;;5099725;28;20031;-75
2023/10/21 05:14:36;;;;;;;66.32;18.48;;;8.40;99.90;;;;;;5100645;28;20032;-73
2023/10/21 05:17:02;;;;;;;199.95;24.10;;;8.40;99.90;;;;;;5100906;28;20020;-76
2023/10/21 05:19:28;;;;;;;88.18;20.52;;;8.30;99.90;;;;;;5100928;28;20082;-75
2023/10/21 05:21:55;;;;;;;185.48;23.80;;;8.50;99.90;;;;;;5100520;28;20043;-76
2023/10/21 05:24:21;;;;;;;102.60;21.98;;;8.40;99.90;;;;;;5099635;28;20028;-76
2023/10/21 05:26:46;;;;;;;82.78;20.92;;;8.40;99.90;;;;;;5101007;28;20085;-76
2023/10/21 05:29:12;;;;;;;173.38;24.60;;;8.40;99.90;;;;;;5098979;28;20026;-75
2023/10/21 05:31:38;;;;;;;91.30;20.30;;;8.50;99.90;;;;;;5099388;28;20380;-75
2023/10/21 05:34:04;;;;;;;95.07;20.45;;;8.40;99.90;;;;;;5099316;28;20073;-76
2023/10/21 05:36:33;;;;;;;138.65;21.08;;;8.40;99.90;;;;;;5099044;28;20064;-76
2023/10/21 05:38:58;;;;;;;131.27;21.10;;;8.40;99.90;;;;;;5100528;28;20406;-76
2023/10/21 05:41:24;;;;;;;76.93;19.45;;;8.40;99.90;;;;;;5099068;28;20028;-75
2023/10/21 05:43:49;;;;;;;86.95;20.17;;;8.40;99.90;;;;;;5100204;28;20118;-75
2023/10/21 05:46:15;;;;;;;111.20;21.52;;;8.40;99.90;;;;;;5100852;28;20387;-77
2023/10/21 05:48:41;;;;;;;107.78;21.55;;;8.50;99.90;;;;;;5102093;28;20050;-76
2023/10/21 05:51:06;;;;;;;79.40;20.33;;;8.50;99.90;;;;;;5102708;28;20035;-77
2023/10/21 05:53:33;;;;;;;94.57;22.80;;;8.50;99.90;;;;;;5102644;28;20027;-76
2023/10/21 05:55:58;;;;;;;121.32;21.50;;;8.50;99.90;;;;;;5103419;28;20137;-74
2023/10/21 05:58:24;;;;;;;162.18;24.15;;;8.50;99.90;;;;;;5104254;28;20419;-74
2023/10/21 06:00:50;;;;;;;153.68;23.65;;;8.40;99.90;;;;;;5102852;28;20016;-76
2023/10/21 06:03:16;;;;;;;133.55;23.83;;;8.50;99.90;;;;;;5103186;28;20024;-76
2023/10/21 06:05:42;;;;;;;155.88;23.73;;;8.50;99.90;;;;;;5104077;28;20020;-76
2023/10/21 06:08:08;;;;;;;96.88;21.60;;;8.60;99.90;;;;;;5104130;28;20024;-76
2023/10/21 06:10:34;;;;;;;53.50;19.75;;;8.50;99.90;;;;;;5103383;28;20032;-76
2023/10/21 06:13:00;;;;;;;130.93;22.52;;;8.50;99.90;;;;;;5102404;28;20062;-75
2023/10/21 06:15:29;;;;;;;76.32;20.00;;;8.60;99.90;;;;;;5101958;28;20031;-76
2023/10/21 06:17:56;;;;;;;83.72;21.33;;;8.60;99.90;;;;;;5103252;28;20043;-76
2023/10/21 06:20:21;;;;;;;104.63;21.70;;;8.60;99.90;;;;;;5103247;28;20016;-76
2023/10/21 06:22:48;;;;;;;98.50;22.13;;;8.60;99.90;;;;;;5102606;28;20035;-75
2023/10/21 06:25:18;;;;;;;83.40;21.45;;;8.60;99.90;;;;;;5104609;28;20024;-76
2023/10/21 06:27:43;;;;;;;67.85;19.70;;;8.60;99.90;;;;;;5102576;28;20096;-76
2023/10/21 06:30:10;;;;;;;66.00;20.08;;;8.70;99.90;;;;;;5101818;28;20062;-74
2023/10/21 06:32:36;;;;;;;98.78;21.42;;;8.60;99.90;;;;;;5102927;28;20115;-76
2023/10/21 06:35:02;;;;;;;101.78;21.90;;;8.70;99.90;;;;;;5103692;28;20023;-76
2023/10/21 06:37:28;;;;;;;76.50;20.00;;;8.70;99.90;;;;;;5101852;28;20024;-76
2023/10/21 06:39:53;;;;;;;60.53;19.08;;;8.60;99.90;;;;;;5100194;28;20035;-73
2023/10/21 06:42:19;;;;;;;65.97;19.83;;;8.70;99.90;;;;;;5101862;28;20159;-74
2023/10/21 06:44:48;;;;;;;54.92;19.15;;;8.60;99.90;;;;;;5102506;28;20050;-81
2023/10/21 06:47:13;;;;;;;66.80;19.08;;;8.70;99.90;;;;;;5102898;28;20028;-76
2023/10/21 06:49:39;;;;;;;58.35;19.60;;;8.70;99.90;;;;;;5101448;28;20028;-75
2023/10/21 06:52:05;;;;;;;48.58;17.23;;;8.80;99.90;;;;;;5100796;28;20034;-76
2023/10/21 06:54:31;;;;;;;54.85;18.20;;;8.80;99.90;;;;;;5101351;28;20028;-75
2023/10/21 06:56:56;;;;;;;45.08;17.48;;;8.80;99.90;;;;;;5101512;28;20020;-74
2023/10/21 06:59:22;;;;;;;70.93;19.33;;;8.70;99.90;;;;;;5101612;28;20106;-76
2023/10/21 07:01:48;;;;;;;63.10;19.85;;;8.90;99.90;;;;;;5101707;28;20020;-75
2023/10/21 07:04:14;;;;;;;80.95;20.30;;;8.80;99.90;;;;;;5101520;28;20028;-76
2023/10/21 07:06:40;;;;;;;53.28;18.83;;;8.90;99.90;;;;;;5101235;28;20020;-74
2023/10/21 07:09:08;;;;;;;60.03;19.02;;;8.90;99.90;;;;;;5101378;28;20028;-76
2023/10/21 07:11:34;;;;;;;43.72;18.65;;;9.00;99.90;;;;;;5100975;28;20028;-76
2023/10/21 07:13:59;;;;;;;44.47;17.70;;;9.10;99.90;;;;;;5102597;28;20366;-76
2023/10/21 07:16:25;;;;;;;44.83;17.75;;;9.00;99.90;;;;;;5102697;28;20042;-76
2023/10/21 07:18:50;;;;;;;48.97;19.02;;;9.10;99.90;;;;;;5101453;28;20055;-76
2023/10/21 07:21:16;;;;;;;40.85;17.52;;;9.10;99.90;;;;;;5101092;28;20047;-76
2023/10/21 07:23:42;;;;;;;45.35;18.10;;;9.10;99.90;;;;;;5101553;28;20036;-76
2023/10/21 07:26:08;;;;;;;40.92;17.27;;;9.00;99.90;;;;;;5100114;28;20020;-76
2023/10/21 07:28:33;;;;;;;48.00;17.70;;;9.10;99.90;;;;;;5101057;28;20157;-77
2023/10/21 07:31:00;;;;;;;42.38;17.48;;;9.10;99.90;;;;;;5099212;28;20024;-76
2023/10/21 07:33:26;;;;;;;37.85;16.58;;;9.10;99.90;;;;;;5099975;28;20052;-74
2023/10/21 07:35:53;;;;;;;42.45;17.50;;;9.20;99.90;;;;;;5100020;28;20054;-76
2023/10/21 07:38:20;;;;;;;36.38;17.35;;;9.20;99.90;;;;;;5100940;28;20569;-76
2023/10/21 07:40:46;;;;;;;37.45;16.20;;;9.20;99.90;;;;;;5100121;28;20420;-77
2023/10/21 07:43:12;;;;;;;39.10;16.70;;;9.30;99.90;;;;;;5100315;28;20095;-76
2023/10/21 07:45:40;;;;;;;36.08;15.88;;;9.30;99.90;;;;;;5099283;28;20016;-76
2023/10/21 07:48:06;;;;;;;33.35;16.25;;;9.30;99.90;;;;;;5098849;28;20043;-77
2023/10/21 07:50:32;;;;;;;37.50;17.13;;;9.30;99.90;;;;;;5101649;28;20027;-77
2023/10/21 07:52:58;;;;;;;34.80;15.90;;;9.30;99.90;;;;;;5099111;28;20028;-77
2023/10/21 07:55:24;;;;;;;37.40;17.20;;;9.40;99.90;;;;;;5101007;28;20322;-77
2023/10/21 07:57:49;;;;;;;34.40;16.33;;;9.40;99.90;;;;;;5100132;28;20031;-76
2023/10/21 08:00:15;;;;;;;33.92;16.75;;;9.40;99.90;;;;;;5100318;28;20016;-77
2023/10/21 08:02:41;;;;;;;34.35;15.73;;;9.40;99.90;;;;;;5098477;28;20162;-77
2023/10/21 08:05:08;;;;;;;37.45;16.45;;;9.50;99.90;;;;;;5099527;28;20065;-76
2023/10/21 08:07:34;;;;;;;35.20;15.55;;;9.50;99.90;;;;;;5099958;28;20448;-76
2023/10/21 08:10:00;;;;;;;36.13;17.55;;;9.60;99.90;;;;;;5100107;28;20040;-76
2023/10/21 08:12:26;;;;;;;40.72;17.73;;;9.50;99.90;;;;;;5100153;28;20036;-76
2023/10/21 08:14:51;;;;;;;36.40;17.67;;;9.60;99.90;;;;;;5099833;28;20027;-77
2023/10/21 08:17:17;;;;;;;35.17;16.65;;;9.60;99.90;;;;;;5099443;28;20020;-76
2023/10/21 08:19:44;;;;;;;33.35;16.20;;;9.60;99.90;;;;;;5100279;28;20095;-76
2023/10/21 08:22:10;;;;;;;35.13;16.10;;;9.50;99.90;;;;;;5099990;28;20028;-76
2023/10/21 08:24:36;;;;;;;35.97;15.73;;;9.60;99.90;;;;;;5100282;28;20509;-76
2023/10/21 08:27:02;;;;;;;36.00;16.48;;;9.60;99.90;;;;;;5101954;28;20122;-78
2023/10/21 08:29:28;;;;;;;33.03;16.35;;;9.60;99.90;;;;;;5099565;28;20040;-78
2023/10/21 08:31:54;;;;;;;32.78;16.73;;;9.70;99.90;;;;;;5100339;28;20072;-79
2023/10/21 08:34:20;;;;;;;34.22;16.75;;;9.60;99.90;;;;;;5100789;28;20107;-76
2023/10/21 08:36:46;;;;;;;34.03;15.90;;;9.60;99.90;;;;;;5099928;28;20051;-77
2023/10/21 08:39:12;;;;;;;35.20;16.15;;;9.70;99.90;;;;;;5099175;28;20024;-77
2023/10/21 08:41:39;;;;;;;35.17;16.40;;;9.70;99.90;;;;;;5099245;28;20036;-76
2023/10/21 08:44:08;;;;;;;30.98;15.20;;;9.60;99.90;;;;;;5100383;28;20042;-77
2023/10/21 08:46:35;;;;;;;33.58;16.83;;;9.70;99.90;;;;;;5098505;28;20016;-76
2023/10/21 08:49:05;;;;;;;36.33;16.77;;;9.60;99.90;;;;;;5098903;28;20024;-77
2023/10/21 08:51:33;;;;;;;32.47;15.52;;;9.70;99.90;;;;;;5098288;28;20095;-76
2023/10/21 08:54:03;;;;;;;36.33;16.77;;;9.70;99.90;;;;;;5098943;28;20028;-77
2023/10/21 08:56:29;;;;;;;35.85;16.98;;;9.70;99.90;;;;;;5099197;28;20048;-76
2023/10/21 08:58:59;;;;;;;33.75;16.23;;;9.70;99.90;;;;;;5097776;28;20110;-77
2023/10/21 09:01:24;;;;;;;32.30;16.20;;;9.80;99.90;;;;;;5098895;28;20089;-77
2023/10/21 09:03:51;;;;;;;34.70;16.73;;;9.80;99.90;;;;;;5095897;28;20071;-77
2023/10/21 09:06:20;;;;;;;32.47;16.20;;;9.90;99.90;;;;;;5101179;28;20369;-76
2023/10/21 09:08:49;;;;;;;38.63;16.85;;;9.90;99.90;;;;;;5099789;28;21082;-76
2023/10/21 09:11:23;;;;;;;34.15;16.17;;;9.90;99.90;;;;;;5099678;28;20856;-75
2023/10/21 09:13:49;;;;;;;35.10;16.97;;;10.00;99.90;;;;;;5096351;28;20544;-74
2023/10/21 09:16:19;;;;;;;32.03;15.48;;;10.00;99.90;;;;;;5099971;28;20262;-75
2023/10/21 09:19:01;;;;;;;32.03;15.02;;;10.00;99.90;;;;;;5100087;28;20042;-75
2023/10/21 09:21:45;;;;;;;32.60;15.38;;;10.10;99.90;;;;;;5101071;28;20150;-76
2023/10/21 09:24:19;;;;;;;30.95;15.05;;;10.00;99.90;;;;;;5102100;28;20536;-75
2023/10/21 09:26:47;;;;;;;29.05;15.30;;;10.00;99.90;;;;;;5104984;28;20031;-76
2023/10/21 09:29:14;;;;;;;28.17;13.75;;;10.00;99.90;;;;;;5103595;28;20385;-75
2023/10/21 09:31:48;;;;;;;29.40;14.60;;;10.00;99.90;;;;;;5104636;28;20036;-76
2023/10/21 09:34:26;;;;;;;;;;;10.00;99.90;;;;;;5104802;28;20051;-77
2023/10/21 09:37:13;;;;;;;28.73;14.02;;;10.00;99.90;;;;;;5102962;28;19961;-77
2023/10/21 09:39:40;;;;;;;31.20;14.48;;;10.00;99.90;;;;;;5102694;28;20040;-73
2023/10/21 09:42:06;;;;;;;25.65;13.60;;;10.10;99.90;;;;;;5104979;28;20023;-75
2023/10/21 09:44:34;;;;;;;27.70;13.60;;;10.10;99.90;;;;;;5104110;28;20028;-77
2023/10/21 09:47:03;;;;;;;27.23;13.68;;;10.10;99.90;;;;;;5104059;28;20137;-74
2023/10/21 09:49:40;;;;;;;30.60;14.82;;;10.20;99.90;;;;;;5104086;28;20480;-73
2023/10/21 09:52:11;;;;;;;29.15;13.25;;;10.20;99.90;;;;;;5103013;28;20047;-75
2023/10/21 09:55:03;;;;;;;31.77;15.40;;;10.20;99.90;;;;;;5103015;28;20036;-74
2023/10/21 09:57:30;;;;;;;29.83;15.35;;;10.20;99.90;;;;;;5102857;28;20028;-75
2023/10/21 09:59:58;;;;;;;28.08;14.38;;;10.10;99.90;;;;;;5103816;28;20032;-74
2023/10/21 10:02:26;;;;;;;33.33;15.23;;;10.20;99.90;;;;;;5102809;28;20050;-75
2023/10/21 10:04:53;;;;;;;27.05;14.65;;;10.20;99.90;;;;;;5104198;28;20091;-76
2023/10/21 10:07:20;;;;;;;31.35;14.13;;;10.30;99.90;;;;;;5103924;28;20020;-74
2023/10/21 10:09:48;;;;;;;30.83;14.18;;;10.30;99.90;;;;;;5104121;28;20384;-77
2023/10/21 10:12:26;;;;;;;28.90;13.60;;;10.40;99.90;;;;;;5104201;28;20100;-75
2023/10/21 10:14:54;;;;;;;29.92;14.55;;;10.40;99.90;;;;;;5103832;28;20028;-75
2023/10/21 10:17:46;;;;;;;29.00;14.18;;;10.50;99.90;;;;;;5102224;28;20020;-73
2023/10/21 10:20:21;;;;;;;25.15;12.80;;;10.50;99.90;;;;;;5102575;28;20163;-75
2023/10/21 10:23:07;;;;;;;25.42;13.23;;;10.60;99.90;;;;;;5101802;28;20047;-74
2023/10/21 10:25:38;;;;;;;25.30;13.45;;;10.70;99.90;;;;;;5104105;28;20057;-75
2023/10/21 10:28:05;;;;;;;27.48;14.00;;;10.70;99.90;;;;;;5103071;28;20027;-75
2023/10/21 10:30:37;;;;;;;24.95;13.73;;;10.80;99.90;;;;;;5103810;28;20039;-75
2023/10/21 10:33:08;;;;;;;25.52;14.13;;;10.90;99.90;;;;;;5103647;28;20376;-75
2023/10/21 10:35:51;;;;;;;25.27;13.48;;;10.90;99.90;;;;;;5101884;28;20036;-76
2023/10/21 10:38:20;;;;;;;25.53;14.40;;;11.00;99.90;;;;;;5102393;28;20020;-75
2023/10/21 10:40:47;;;;;;;29.80;15.05;;;11.10;99.90;;;;;;5102077;28;20032;-76
2023/10/21 10:43:18;;;;;;;25.90;13.88;;;11.20;99.90;;;;;;5102242;28;20050;-76
2023/10/21 10:45:43;;;;;;;27.10;13.90;;;11.30;99.90;;;;;;5103431;28;20107;-77
2023/10/21 10:48:10;;;;;;;27.42;14.60;;;11.50;99.90;;;;;;5101523;28;20031;-78
2023/10/21 10:50:38;;;;;;;24.55;14.45;;;11.60;99.90;;;;;;5103966;28;20050;-76
2023/10/21 10:53:17;;;;;;;29.65;15.10;;;11.60;99.90;;;;;;5103805;28;20047;-77
2023/10/21 10:55:48;;;;;;;28.08;14.18;;;11.80;99.90;;;;;;5103194;28;20059;-76
2023/10/21 10:58:18;;;;;;;26.55;14.38;;;12.00;99.90;;;;;;5102000;28;20100;-76
2023/10/21 11:00:45;;;;;;;27.48;15.45;;;12.20;99.90;;;;;;5103993;28;20015;-77
2023/10/21 11:03:22;;;;;;;23.80;14.07;;;12.40;99.90;;;;;;5102844;28;20032;-76
2023/10/21 11:05:48;;;;;;;25.33;13.77;;;12.60;99.90;;;;;;5103525;28;20028;-76
2023/10/21 11:08:15;;;;;;;22.48;14.25;;;12.80;99.90;;;;;;5102293;28;20075;-77
2023/10/21 11:10:41;;;;;;;22.08;13.20;;;12.80;99.90;;;;;;5101242;28;20024;-76
2023/10/21 11:13:07;;;;;;;20.63;13.27;;;12.80;99.90;;;;;;5101804;28;20047;-77
2023/10/21 11:15:44;;;;;;;25.23;13.43;;;12.90;99.90;;;;;;5103022;28;20076;-77
2023/10/21 11:18:13;;;;;;;19.65;12.82;;;12.90;99.90;;;;;;5102442;28;20020;-77
2023/10/21 11:21:05;;;;;;;20.63;14.55;;;13.00;99.90;;;;;;5101786;28;20024;-77
2023/10/21 11:23:31;;;;;;;20.88;12.80;;;13.30;99.90;;;;;;5101125;28;20051;-77
2023/10/21 11:25:59;;;;;;;19.92;12.18;;;13.40;99.90;;;;;;5101168;28;20078;-78
2023/10/21 11:28:26;;;;;;;18.48;11.40;;;13.40;99.90;;;;;;5100908;28;20030;-78
2023/10/21 11:30:52;;;;;;;18.25;12.02;;;13.30;99.90;;;;;;5101336;28;20111;-78
2023/10/21 11:33:18;;;;;;;20.50;12.50;;;13.20;99.90;;;;;;5102419;28;20039;-78
2023/10/21 11:35:47;;;;;;;17.95;11.50;;;13.20;99.90;;;;;;5100789;28;20020;-78
2023/10/21 11:38:17;;;;;;;23.92;12.98;;;13.20;99.90;;;;;;5099130;28;20028;-78
2023/10/21 11:40:46;;;;;;;20.63;13.48;;;13.20;99.90;;;;;;5100164;28;20031;-77
2023/10/21 11:43:16;;;;;;;22.70;13.10;;;13.30;99.90;;;;;;5100786;28;20069;-78
2023/10/21 11:45:42;;;;;;;23.42;13.35;;;13.30;99.90;;;;;;5100853;28;20016;-77
2023/10/21 11:48:11;;;;;;;25.35;14.05;;;13.30;99.90;;;;;;5100840;28;20119;-76
2023/10/21 11:50:42;;;;;;;22.92;13.63;;;13.30;99.90;;;;;;5101882;28;20122;-77
2023/10/21 11:53:08;;;;;;;21.80;13.50;;;13.30;99.90;;;;;;5101992;28;20012;-77
2023/10/21 12:31:26;;;;;;;19.00;13.25;;;14.10;99.90;;;;;;5101482;28;20556;-74
2023/10/21 12:36:33;;;;;;;22.25;14.00;;;14.00;99.90;;;;;;5101609;28;20136;-75
2023/10/21 12:41:45;;;;;;;23.03;13.90;;;14.00;99.90;;;;;;5102032;28;20047;-75
2023/10/21 12:44:14;;;;;;;23.80;13.85;;;14.00;99.90;;;;;;5100001;28;20828;-75
2023/10/21 12:46:43;;;;;;;23.45;15.02;;;14.00;99.90;;;;;;5099640;28;20020;-73
2023/10/21 12:49:20;;;;;;;24.10;15.05;;;14.00;99.90;;;;;;5101162;28;20020;-74
2023/10/21 12:51:45;;;;;;;25.63;15.82;;;14.00;99.90;;;;;;5099605;28;20024;-74
2023/10/21 12:54:11;;;;;;;23.58;14.10;;;14.00;99.90;;;;;;5101005;28;20054;-77
2023/10/21 12:56:38;;;;;;;21.75;13.40;;;14.00;99.90;;;;;;5100171;28;20052;-76
2023/10/21 12:59:04;;;;;;;11.43;8.48;;;13.90;99.90;;;;;;5105707;28;20031;-76
2023/10/21 13:01:30;;;;;;;6.57;5.40;;;13.90;99.90;;;;;;5104725;28;20083;-71
2023/10/21 13:03:57;;;;;;;6.72;4.90;;;13.90;99.90;;;;;;5104093;28;20036;-82
2023/10/21 13:06:23;;;;;;;10.68;5.40;;;13.80;99.90;;;;;;5107172;28;20051;-75
2023/10/21 13:08:51;;;;;;;8.55;5.38;;;13.80;99.90;;;;;;5106354;28;20020;-82
2023/10/21 13:11:18;;;;;;;7.15;5.20;;;13.80;99.90;;;;;;5105252;28;20469;-78
2023/10/21 13:13:46;;;;;;;7.00;4.78;;;13.90;99.90;;;;;;5107557;28;20020;-78
2023/10/21 13:16:14;;;;;;;6.55;4.70;;;13.90;99.90;;;;;;5105001;28;20465;-77